Time;durP1;ratioP1;P1;durP2;ratioP2;P2;SDS_P1;SDS_P2;PMS_P1;PMS_P2;Temp;Humidity;BMP_temperature;BMP_pressure;BME280_temperature;BME280_humidity;BME280_pressure;Samples;Min_cycle;Max_cycle;Signal;HPM_P1;HPM_P2
2022/03/21 00:00:39;;;;;;;;;;;7.40;89.10;;;;;;5056977;28;19968;-56
2022/03/21 00:03:08;;;;;;;;;;;7.50;88.70;;;;;;5055304;28;20273;-55
2022/03/21 00:05:35;;;;;;;;;;;7.70;88.30;;;;;;5036494;28;20355;-56
2022/03/21 00:08:02;;;;;;;;;;;7.40;88.60;;;;;;5052008;28;19982;-55
2022/03/21 00:10:29;;;;;;;;;;;7.20;89.70;;;;;;5054850;28;19925;-56
2022/03/21 00:12:56;;;;;;;;;;;7.10;90.00;;;;;;5053685;28;19928;-56
2022/03/21 00:15:23;;;;;;;;;;;6.80;90.30;;;;;;5053742;28;19925;-56
2022/03/21 00:17:50;;;;;;;;;;;6.80;90.40;;;;;;5053921;28;19972;-55
2022/03/21 00:20:19;;;;;;;;;;;6.90;90.10;;;;;;5054886;28;19994;-56
2022/03/21 00:22:46;;;;;;;;;;;7.00;89.30;;;;;;5053738;28;19925;-56
2022/03/21 00:25:13;;;;;;;;;;;6.90;89.80;;;;;;5050146;28;19928;-56
2022/03/21 00:27:40;;;;;;;;;;;6.80;90.10;;;;;;5050004;28;19925;-56
2022/03/21 00:30:09;;;;;;;;;;;6.80;90.10;;;;;;5053201;28;19931;-56
2022/03/21 00:32:36;;;;;;;;;;;6.80;89.90;;;;;;5052899;28;19925;-56
2022/03/21 00:35:04;;;;;;;;;;;6.70;90.00;;;;;;5053670;28;19959;-56
2022/03/21 00:37:33;;;;;;;;;;;6.60;90.10;;;;;;5053266;28;19924;-56
2022/03/21 00:39:59;;;;;;;;;;;6.60;90.50;;;;;;5053719;28;19932;-56
2022/03/21 00:42:27;;;;;;;;;;;6.80;89.90;;;;;;5053328;28;20350;-56
2022/03/21 00:44:54;;;;;;;;;;;6.70;89.70;;;;;;5051318;28;19925;-55
2022/03/21 00:47:21;;;;;;;;;;;6.70;89.40;;;;;;5050434;28;19932;-56
2022/03/21 00:49:48;;;;;;;;;;;6.90;88.40;;;;;;5053663;28;19924;-55
2022/03/21 00:52:15;;;;;;;;;;;7.20;87.70;;;;;;5061237;28;20335;-56
2022/03/21 00:54:43;;;;;;;;;;;7.20;87.50;;;;;;5055165;28;19925;-55
2022/03/21 00:57:10;;;;;;;;;;;7.30;87.40;;;;;;5059976;28;19925;-56
2022/03/21 00:59:36;;;;;;;;;;;7.10;87.70;;;;;;5059215;28;19947;-56
2022/03/21 01:02:03;;;;;;;;;;;7.40;86.40;;;;;;5066968;28;19925;-56
2022/03/21 01:04:30;;;;;;;;;;;7.40;86.20;;;;;;5056460;28;19925;-56
2022/03/21 01:06:57;;;;;;;;;;;7.20;86.20;;;;;;5052356;28;19925;-56
2022/03/21 01:09:23;;;;;;;;;;;7.30;86.10;;;;;;5058523;28;19924;-56
2022/03/21 01:11:51;;;;;;;;;;;7.40;86.50;;;;;;5053675;28;19929;-56
2022/03/21 01:14:18;;;;;;;;;;;7.40;85.50;;;;;;5062571;28;19971;-56
2022/03/21 01:16:46;;;;;;;;;;;7.50;85.40;;;;;;5053862;28;19925;-56
2022/03/21 01:19:13;;;;;;;;;;;7.40;85.20;;;;;;5052990;28;19928;-56
2022/03/21 01:21:39;;;;;;;;;;;7.20;86.00;;;;;;5052533;28;19924;-56
2022/03/21 01:24:06;;;;;;;;;;;7.00;86.10;;;;;;5067641;28;19985;-56
2022/03/21 01:26:33;;;;;;;;;;;6.90;86.40;;;;;;5062242;28;20233;-56
2022/03/21 01:29:01;;;;;;;;;;;6.70;86.80;;;;;;5051471;28;19991;-55
2022/03/21 01:31:28;;;;;;;;;;;6.60;87.40;;;;;;5042889;28;19971;-56
2022/03/21 01:33:55;;;;;;;;;;;6.50;87.70;;;;;;5050321;28;19979;-55
2022/03/21 01:36:22;;;;;;;;;;;6.60;88.20;;;;;;5052269;28;19971;-55
2022/03/21 01:38:49;;;;;;;;;;;6.70;87.30;;;;;;5052807;28;19947;-55
2022/03/21 01:41:16;;;;;;;;;;;6.80;87.40;;;;;;5051712;28;20321;-55
2022/03/21 01:43:55;;;;;;;;;;;6.70;87.00;;;;;;5051881;28;19997;-54
2022/03/21 01:46:24;;;;;;;;;;;6.70;87.50;;;;;;5048034;28;19928;-56
2022/03/21 01:48:51;;;;;;;;;;;7.00;86.30;;;;;;5049346;28;20019;-55
2022/03/21 01:51:17;;;;;;;;;;;7.20;85.70;;;;;;5048285;28;19925;-55
2022/03/21 01:56:28;;;;;;;;;;;7.20;86.60;;;;;;5040498;28;19920;-56
2022/03/21 01:58:54;;;;;;;;;;;7.10;85.20;;;;;;5051893;28;19925;-55
2022/03/21 02:01:21;;;;;;;;;;;7.10;85.80;;;;;;5051712;28;19925;-56
2022/03/21 02:03:50;;;;;;;;;;;7.10;85.70;;;;;;5052274;28;20354;-55
2022/03/21 02:06:16;;;;;;;;;;;7.20;85.10;;;;;;5052802;28;19925;-55
2022/03/21 02:08:43;;;;;;;;;;;7.10;85.50;;;;;;5056834;28;19982;-56
2022/03/21 02:11:11;;;;;;;;;;;7.20;85.30;;;;;;5051638;28;19983;-54
2022/03/21 02:13:38;;;;;;;;;;;7.10;85.50;;;;;;5051566;28;19924;-55
2022/03/21 02:16:06;;;;;;;;;;;7.10;85.20;;;;;;5051491;28;19983;-55
2022/03/21 02:18:34;;;;;;;;;;;7.20;85.80;;;;;;5052270;28;20020;-56
2022/03/21 02:21:05;;;;;;;;;;;7.40;85.90;;;;;;5052449;28;19933;-55
2022/03/21 02:23:39;;;;;;;;;;;7.40;85.00;;;;;;5051889;28;20454;-55
2022/03/21 02:26:08;;;;;;;;;;;7.40;85.30;;;;;;5058559;28;19970;-55
2022/03/21 02:28:35;;;;;;;;;;;7.40;84.80;;;;;;5053855;28;19925;-55
2022/03/21 02:31:05;;;;;;;;;;;7.10;85.20;;;;;;5031209;28;19925;-55
2022/03/21 02:33:32;;;;;;;;;;;7.10;85.80;;;;;;5044310;28;19972;-55
2022/03/21 02:36:00;;;;;;;;;;;7.20;84.80;;;;;;5048835;28;19925;-56
2022/03/21 02:38:27;;;;;;;;;;;7.30;85.00;;;;;;5052443;28;19925;-55
2022/03/21 02:40:54;;;;;;;;;;;7.40;85.00;;;;;;5049264;28;19932;-55
2022/03/21 02:43:22;;;;;;;;;;;7.40;84.40;;;;;;5051625;28;19978;-55
2022/03/21 02:45:49;;;;;;;;;;;7.30;84.40;;;;;;5051942;28;20352;-56
2022/03/21 02:48:18;;;;;;;;;;;7.30;84.30;;;;;;5051998;28;19925;-55
2022/03/21 02:50:49;;;;;;;;;;;7.40;84.50;;;;;;5047248;28;19925;-55
2022/03/21 02:53:17;;;;;;;;;;;7.40;84.10;;;;;;5050171;28;19931;-56
2022/03/21 02:55:43;;;;;;;;;;;7.40;82.70;;;;;;5051542;28;19982;-56
2022/03/21 02:58:10;;;;;;;;;;;7.60;83.10;;;;;;5051487;28;19936;-56
2022/03/21 03:00:38;;;;;;;;;;;7.60;82.30;;;;;;5052430;28;19979;-56
2022/03/21 03:03:05;;;;;;;;;;;7.60;82.00;;;;;;5066712;28;20449;-55
2022/03/21 03:05:32;;;;;;;;;;;7.60;82.00;;;;;;5066357;28;19925;-56
2022/03/21 03:07:58;;;;;;;;;;;7.70;82.50;;;;;;5056826;28;19925;-56
2022/03/21 03:10:25;;;;;;;;;;;7.70;82.30;;;;;;5059747;28;19925;-55
2022/03/21 03:12:52;;;;;;;;;;;7.60;81.60;;;;;;5058574;28;19925;-56
2022/03/21 03:15:19;;;;;;;;;;;7.60;81.30;;;;;;5064203;28;19924;-55
2022/03/21 03:17:47;;;;;;;;;;;7.60;81.50;;;;;;5056555;28;19940;-55
2022/03/21 03:20:13;;;;;;;;;;;7.40;82.20;;;;;;5056570;28;19932;-55
2022/03/21 03:22:40;;;;;;;;;;;7.40;83.80;;;;;;5073143;28;19970;-55
2022/03/21 03:25:07;;;;;;;;;;;7.30;84.00;;;;;;5058408;28;19925;-55
2022/03/21 03:27:34;;;;;;;;;;;7.10;84.00;;;;;;5054984;28;19931;-56
2022/03/21 03:30:02;;;;;;;;;;;7.20;85.20;;;;;;5055596;28;19928;-55
2022/03/21 03:32:29;;;;;;;;;;;7.00;85.30;;;;;;5066677;28;20407;-55
2022/03/21 03:34:57;;;;;;;;;;;6.90;85.70;;;;;;5055556;28;20407;-55
2022/03/21 03:37:24;;;;;;;;;;;6.80;85.60;;;;;;5054620;28;19932;-56
2022/03/21 03:39:51;;;;;;;;;;;6.80;84.30;;;;;;5055734;28;19928;-55
2022/03/21 03:42:19;;;;;;;;;;;6.80;84.40;;;;;;5051324;28;19928;-55
2022/03/21 03:44:46;;;;;;;;;;;6.70;85.40;;;;;;5055825;28;19979;-55
2022/03/21 03:47:13;;;;;;;;;;;6.90;84.50;;;;;;5055449;28;19925;-55
2022/03/21 03:49:39;;;;;;;;;;;6.90;85.00;;;;;;5062406;28;20493;-55
2022/03/21 03:52:08;;;;;;;;;;;6.90;84.00;;;;;;5055701;28;19978;-55
2022/03/21 03:54:34;;;;;;;;;;;7.00;84.10;;;;;;5055935;28;19924;-56
2022/03/21 03:57:01;;;;;;;;;;;6.80;83.90;;;;;;5063066;28;19932;-55
2022/03/21 03:59:28;;;;;;;;;;;6.50;84.70;;;;;;5063359;28;19986;-55
2022/03/21 04:01:55;;;;;;;;;;;6.40;85.50;;;;;;5055743;28;19971;-54
2022/03/21 04:04:21;;;;;;;;;;;6.30;85.50;;;;;;5061369;28;20260;-55
2022/03/21 04:06:48;;;;;;;;;;;6.40;85.20;;;;;;5071939;28;19924;-55
2022/03/21 04:09:16;;;;;;;;;;;6.40;85.70;;;;;;5060371;28;19925;-55
2022/03/21 04:11:43;;;;;;;;;;;6.20;85.80;;;;;;5054244;28;19929;-55
2022/03/21 04:14:10;;;;;;;;;;;6.10;86.40;;;;;;5059324;28;19932;-55
2022/03/21 04:16:39;;;;;;;;;;;6.00;86.80;;;;;;5055072;28;20430;-55
2022/03/21 04:19:05;;;;;;;;;;;5.80;87.70;;;;;;5055329;28;19925;-54
2022/03/21 04:21:33;;;;;;;;;;;5.90;87.50;;;;;;5058101;28;20469;-55
2022/03/21 04:24:00;;;;;;;;;;;5.80;87.40;;;;;;5062288;28;20293;-55
2022/03/21 04:26:28;;;;;;;;;;;5.70;87.50;;;;;;5060273;28;19928;-55
2022/03/21 04:28:56;;;;;;;;;;;5.80;89.30;;;;;;5053933;28;20477;-55
2022/03/21 04:31:23;;;;;;;;;;;5.70;89.80;;;;;;5055133;28;19925;-55
2022/03/21 04:33:49;;;;;;;;;;;5.70;89.10;;;;;;5055869;28;19948;-55
2022/03/21 04:36:16;;;;;;;;;;;5.70;89.70;;;;;;5059796;28;19925;-55
2022/03/21 04:38:43;;;;;;;;;;;5.70;89.30;;;;;;5067254;28;19928;-55
2022/03/21 04:41:10;;;;;;;;;;;5.70;89.80;;;;;;5069724;28;19932;-55
2022/03/21 04:43:38;;;;;;;;;;;5.60;90.00;;;;;;5064212;28;19925;-55
2022/03/21 04:46:09;;;;;;;;;;;5.70;89.60;;;;;;5067464;28;19970;-55
2022/03/21 04:48:36;;;;;;;;;;;5.90;89.70;;;;;;5068715;28;19924;-55
2022/03/21 04:51:03;;;;;;;;;;;5.90;89.90;;;;;;5064473;28;19990;-54
2022/03/21 04:53:30;;;;;;;;;;;6.00;90.40;;;;;;5063941;28;19925;-55
2022/03/21 04:55:56;;;;;;;;;;;6.00;89.50;;;;;;5063243;28;19924;-55
2022/03/21 04:58:23;;;;;;;;;;;5.90;90.10;;;;;;5058891;28;19978;-56
2022/03/21 05:00:52;;;;;;;;;;;5.70;90.30;;;;;;5056548;28;19932;-56
2022/03/21 05:03:18;;;;;;;;;;;5.70;90.40;;;;;;5058600;28;19928;-56
2022/03/21 05:05:45;;;;;;;;;;;5.70;90.10;;;;;;5052363;28;19929;-56
2022/03/21 05:08:12;;;;;;;;;;;5.60;90.10;;;;;;5055458;28;19983;-56
2022/03/21 05:10:39;;;;;;;;;;;5.60;90.10;;;;;;5055459;28;19924;-56
2022/03/21 05:13:06;;;;;;;;;;;5.60;90.70;;;;;;5054171;28;19929;-55
2022/03/21 05:15:33;;;;;;;;;;;5.60;91.10;;;;;;5054266;28;19924;-55
2022/03/21 05:18:01;;;;;;;;;;;5.50;91.60;;;;;;5055377;28;19998;-56
2022/03/21 05:20:28;;;;;;;;;;;5.40;91.60;;;;;;5058110;28;19924;-56
2022/03/21 05:31:08;;;;;;;;;;;4.90;93.30;;;;;;5053428;28;19947;-56
2022/03/21 05:36:23;;;;;;;;;;;4.60;94.20;;;;;;5051398;28;19932;-56
2022/03/21 05:38:50;;;;;;;;;;;4.50;94.60;;;;;;5054839;28;19929;-56
2022/03/21 05:41:16;;;;;;;;;;;4.40;95.00;;;;;;5071240;28;19924;-56
2022/03/21 05:43:43;;;;;;;;;;;4.50;95.30;;;;;;5058980;28;19951;-56
2022/03/21 05:46:11;;;;;;;;;;;4.70;95.30;;;;;;5056618;28;20480;-56
2022/03/21 05:49:00;;;;;;;;;;;4.90;95.30;;;;;;5058205;28;19938;-56
2022/03/21 05:51:28;;;;;;;;;;;4.90;95.50;;;;;;5096377;22;19931;-53
2022/03/21 05:53:55;;;;;;;;;;;5.20;95.30;;;;;;5071077;28;19982;-52
2022/03/21 05:56:25;;;;;;;;;;;5.30;95.30;;;;;;5076407;28;19924;-53
2022/03/21 05:58:52;;;;;;;;;;;5.20;95.20;;;;;;5087506;28;19932;-52
2022/03/21 06:01:22;;;;;;;;;;;5.20;96.00;;;;;;5082327;28;19956;-52
2022/03/21 06:03:51;;;;;;;;;;;5.30;96.20;;;;;;5049664;28;20406;-50
2022/03/21 06:06:18;;;;;;;;;;;5.60;95.80;;;;;;5060314;28;19929;-50
2022/03/21 06:08:46;;;;;;;;;;;5.60;95.90;;;;;;5048405;28;19936;-50
2022/03/21 06:11:15;;;;;;;;;;;5.80;95.90;;;;;;5066074;28;20021;-50
2022/03/21 06:13:43;;;;;;;;;;;5.90;96.10;;;;;;5051915;28;19924;-49
2022/03/21 06:16:10;;;;;;;;;;;6.20;95.60;;;;;;5059494;28;19925;-50
2022/03/21 06:18:38;;;;;;;;;;;6.50;95.40;;;;;;5051878;28;20388;-51
2022/03/21 06:21:07;;;;;;;;;;;7.10;94.90;;;;;;5050139;28;19937;-51
2022/03/21 06:23:34;;;;;;;;;;;7.80;94.50;;;;;;5048692;28;19978;-51
2022/03/21 06:26:01;;;;;;;;;;;8.60;93.00;;;;;;5051811;28;20020;-54
2022/03/21 06:28:28;;;;;;;;;;;9.40;91.80;;;;;;5048620;28;19924;-51
2022/03/21 06:30:56;;;;;;;;;;;10.30;90.40;;;;;;5053503;28;19929;-51
2022/03/21 06:33:24;;;;;;;;;;;11.00;89.10;;;;;;5056018;28;20087;-51
2022/03/21 06:35:51;;;;;;;;;;;11.60;85.50;;;;;;5055784;28;20292;-51
2022/03/21 06:38:20;;;;;;;;;;;12.40;83.50;;;;;;5050873;28;19924;-52
2022/03/21 06:40:47;;;;;;;;;;;12.80;81.60;;;;;;5053274;28;20509;-52
2022/03/21 06:43:15;;;;;;;;;;;12.70;80.50;;;;;;5050676;28;20288;-52
2022/03/21 06:45:42;;;;;;;;;;;13.40;78.80;;;;;;5051493;28;20384;-52
2022/03/21 06:48:09;;;;;;;;;;;13.00;74.60;;;;;;5051399;28;19994;-52
2022/03/21 06:50:36;;;;;;;;;;;12.90;73.20;;;;;;5051460;28;19929;-52
2022/03/21 06:53:03;;;;;;;;;;;13.20;72.00;;;;;;5050874;28;20388;-52
2022/03/21 06:55:31;;;;;;;;;;;13.10;72.30;;;;;;5051383;28;19925;-53
2022/03/21 06:57:58;;;;;;;;;;;12.80;71.20;;;;;;5051304;28;19986;-53
2022/03/21 07:00:24;;;;;;;;;;;12.80;70.70;;;;;;5051108;28;19925;-52
2022/03/21 07:02:51;;;;;;;;;;;12.20;71.60;;;;;;5051609;28;19928;-52
2022/03/21 07:05:18;;;;;;;;;;;12.80;71.80;;;;;;5049726;28;20338;-51
2022/03/21 07:07:47;;;;;;;;;;;13.10;71.00;;;;;;5050712;28;19932;-53
2022/03/21 07:10:13;;;;;;;;;;;13.40;71.10;;;;;;5060663;28;20011;-52
2022/03/21 07:12:44;;;;;;;;;;;13.90;69.50;;;;;;5047888;28;19998;-52
2022/03/21 07:15:11;;;;;;;;;;;13.10;69.20;;;;;;5050126;28;19929;-52
2022/03/21 07:17:37;;;;;;;;;;;13.40;70.80;;;;;;5053635;28;19928;-52
2022/03/21 07:20:04;;;;;;;;;;;14.10;68.40;;;;;;5052467;28;19995;-52
2022/03/21 07:22:31;;;;;;;;;;;14.00;68.10;;;;;;5050252;28;19925;-52
2022/03/21 07:24:58;;;;;;;;;;;14.70;68.60;;;;;;5051050;28;19932;-52
2022/03/21 07:27:25;;;;;;;;;;;15.20;66.70;;;;;;5051109;28;19925;-52
2022/03/21 07:29:53;;;;;;;;;;;13.50;68.30;;;;;;5051299;28;19933;-52
2022/03/21 07:32:20;;;;;;;;;;;14.10;67.10;;;;;;5050520;28;20422;-52
2022/03/21 07:34:47;;;;;;;;;;;14.60;66.90;;;;;;5051319;28;19929;-52
2022/03/21 07:37:14;;;;;;;;;;;14.00;67.20;;;;;;5051019;28;19971;-52
2022/03/21 07:39:44;;;;;;;;;;;14.40;67.00;;;;;;5050203;28;20355;-52
2022/03/21 07:42:14;;;;;;;;;;;14.10;66.80;;;;;;5050208;28;19929;-53
2022/03/21 07:47:26;;;;;;;;;;;15.10;66.20;;;;;;5050228;28;19943;-52
2022/03/21 07:49:55;;;;;;;;;;;15.30;65.90;;;;;;5050670;28;19951;-53
2022/03/21 07:52:22;;;;;;;;;;;16.70;64.50;;;;;;5049295;28;19956;-52
2022/03/21 07:54:51;;;;;;;;;;;17.40;61.60;;;;;;5050262;28;19941;-53
2022/03/21 07:57:18;;;;;;;;;;;17.60;61.30;;;;;;5050246;28;19924;-53
2022/03/21 07:59:45;;;;;;;;;;;18.60;59.60;;;;;;5051518;28;19935;-52
2022/03/21 08:02:11;;;;;;;;;;;18.80;58.20;;;;;;5053451;28;19986;-52
2022/03/21 08:04:40;;;;;;;;;;;18.00;58.60;;;;;;5053616;28;20000;-53
2022/03/21 08:07:06;;;;;;;;;;;17.60;59.80;;;;;;5053625;28;19929;-52
2022/03/21 08:09:33;;;;;;;;;;;17.70;59.10;;;;;;5054187;28;20457;-52
2022/03/21 08:12:00;;;;;;;;;;;18.10;59.60;;;;;;5053508;28;19925;-51
2022/03/21 08:14:27;;;;;;;;;;;18.70;59.00;;;;;;5052904;28;20016;-53
2022/03/21 08:16:54;;;;;;;;;;;19.10;59.30;;;;;;5053629;28;19979;-52
2022/03/21 08:19:22;;;;;;;;;;;19.40;56.70;;;;;;5053186;28;19928;-53
2022/03/21 08:21:50;;;;;;;;;;;18.50;58.10;;;;;;5052554;28;19928;-52
2022/03/21 08:24:17;;;;;;;;;;;18.30;57.90;;;;;;5070489;28;19983;-53
2022/03/21 08:26:43;;;;;;;;;;;18.60;57.10;;;;;;5064992;28;19925;-53
2022/03/21 08:29:10;;;;;;;;;;;17.90;57.60;;;;;;5053824;28;19924;-53
2022/03/21 08:31:39;;;;;;;;;;;17.50;57.60;;;;;;5053191;28;19982;-53
2022/03/21 08:34:06;;;;;;;;;;;18.00;57.50;;;;;;5053786;28;20075;-52
2022/03/21 08:36:36;;;;;;;;;;;18.50;56.20;;;;;;5053955;28;19925;-53
2022/03/21 08:39:05;;;;;;;;;;;17.30;58.00;;;;;;5060905;28;19986;-53
2022/03/21 08:41:32;;;;;;;;;;;16.80;57.30;;;;;;5058676;28;20304;-52
2022/03/21 08:43:58;;;;;;;;;;;15.70;58.30;;;;;;5049501;28;19978;-52
2022/03/21 08:46:26;;;;;;;;;;;15.50;57.20;;;;;;5053413;28;19924;-53
2022/03/21 08:51:37;;;;;;;;;;;17.50;59.50;;;;;;5052849;28;19931;-52
2022/03/21 08:54:07;;;;;;;;;;;17.90;56.30;;;;;;5053425;28;19968;-52
2022/03/21 08:56:34;;;;;;;;;;;18.10;55.50;;;;;;5058293;28;19925;-52
2022/03/21 08:59:00;;;;;;;;;;;17.60;57.40;;;;;;5050705;28;19925;-51
2022/03/21 09:01:27;;;;;;;;;;;17.70;56.50;;;;;;5050284;28;20026;-51
2022/03/21 09:03:54;;;;;;;;;;;17.90;56.20;;;;;;5052025;28;19925;-51
2022/03/21 09:06:21;;;;;;;;;;;18.60;56.90;;;;;;5063861;28;19928;-52
2022/03/21 09:08:48;;;;;;;;;;;20.30;55.20;;;;;;5070957;28;19933;-51
2022/03/21 09:11:17;;;;;;;;;;;20.70;53.30;;;;;;5059559;28;19937;-51
2022/03/21 09:13:44;;;;;;;;;;;22.20;52.20;;;;;;5051993;28;19975;-51
2022/03/21 09:16:11;;;;;;;;;;;22.40;51.70;;;;;;5052162;28;19925;-52
2022/03/21 09:18:38;;;;;;;;;;;22.80;50.50;;;;;;5062818;28;20006;-52
2022/03/21 09:21:05;;;;;;;;;;;22.00;49.80;;;;;;5061037;28;20287;-53
2022/03/21 09:23:33;;;;;;;;;;;22.50;50.50;;;;;;5052629;28;20373;-52
2022/03/21 09:26:00;;;;;;;;;;;23.00;56.60;;;;;;5052441;28;20299;-52
2022/03/21 09:28:28;;;;;;;;;;;22.10;59.90;;;;;;5052591;28;20037;-52
2022/03/21 09:30:55;;;;;;;;;;;22.70;58.40;;;;;;5052307;28;20011;-52
2022/03/21 09:33:22;;;;;;;;;;;22.80;59.60;;;;;;5052413;28;19925;-52
2022/03/21 09:35:48;;;;;;;;;;;23.80;58.80;;;;;;5047177;28;19982;-52
2022/03/21 09:38:15;;;;;;;;;;;23.10;59.50;;;;;;5051376;28;19925;-53
2022/03/21 09:40:43;;;;;;;;;;;22.40;61.20;;;;;;5051369;28;19924;-52
2022/03/21 09:43:10;;;;;;;;;;;23.90;60.20;;;;;;5051082;28;19986;-52
2022/03/21 09:45:38;;;;;;;;;;;24.50;58.20;;;;;;5050963;28;20307;-52
2022/03/21 09:48:12;;;;;;;;;;;23.90;58.90;;;;;;5051167;28;19924;-52
2022/03/21 09:50:40;;;;;;;;;;;23.00;59.40;;;;;;5051380;28;19925;-53
2022/03/21 09:53:07;;;;;;;;;;;23.00;60.20;;;;;;5051345;28;19955;-53
2022/03/21 09:55:34;;;;;;;;;;;22.40;62.50;;;;;;5052072;28;19933;-52
2022/03/21 09:58:01;;;;;;;;;;;23.00;60.50;;;;;;5052150;28;19929;-52
2022/03/21 10:00:28;;;;;;;;;;;21.90;60.50;;;;;;5034542;28;19933;-53
2022/03/21 10:02:57;;;;;;;;;;;20.30;63.80;;;;;;5051509;28;19929;-52
2022/03/21 10:05:33;;;;;;;;;;;20.90;64.30;;;;;;5051647;28;19929;-53
2022/03/21 10:08:13;;;;;;;;;;;21.70;64.30;;;;;;5051384;28;19978;-53
2022/03/21 10:10:40;;;;;;;;;;;22.50;62.60;;;;;;5036138;28;19929;-52
2022/03/21 10:13:09;;;;;;;;;;;23.50;61.60;;;;;;5051396;28;19971;-53
2022/03/21 10:15:36;;;;;;;;;;;23.00;60.20;;;;;;5051444;28;19944;-53
2022/03/21 10:18:08;;;;;;;;;;;22.80;60.00;;;;;;5051561;28;19925;-53
2022/03/21 10:20:35;;;;;;;;;;;23.20;58.80;;;;;;5051268;28;19959;-53
2022/03/21 10:23:17;;;;;;;;;;;23.50;58.20;;;;;;5049693;28;20456;-53
2022/03/21 10:25:44;;;;;;;;;;;23.50;58.10;;;;;;5050261;28;19982;-52
2022/03/21 10:28:11;;;;;;;;;;;23.10;58.40;;;;;;5051358;28;20396;-52
2022/03/21 10:30:46;;;;;;;;;;;22.20;60.80;;;;;;5051091;28;19928;-53
2022/03/21 10:33:23;;;;;;;;;;;22.00;60.30;;;;;;5051284;28;20020;-53
2022/03/21 10:35:50;;;;;;;;;;;22.30;59.40;;;;;;5051248;28;20448;-52
2022/03/21 10:38:29;;;;;;;;;;;22.50;58.90;;;;;;5050715;28;19978;-52
2022/03/21 10:40:56;;;;;;;;;;;22.10;60.20;;;;;;5050709;28;19925;-52
2022/03/21 10:43:23;;;;;;;;;;;21.40;59.30;;;;;;5050762;28;19932;-52
2022/03/21 10:45:51;;;;;;;;;;;21.30;61.20;;;;;;5051004;28;20039;-52
2022/03/21 10:48:20;;;;;;;;;;;21.90;60.20;;;;;;5051267;28;20043;-54
2022/03/21 10:50:47;;;;;;;;;;;21.70;59.90;;;;;;5050914;28;19928;-51
2022/03/21 10:53:15;;;;;;;;;;;20.30;63.10;;;;;;5050412;28;20057;-52
2022/03/21 10:55:42;;;;;;;;;;;20.10;63.80;;;;;;5057985;28;19948;-53
2022/03/21 10:58:11;;;;;;;;;;;19.30;64.80;;;;;;5050318;28;19925;-52
2022/03/21 11:00:38;;;;;;;;;;;18.70;66.30;;;;;;5050835;28;20388;-52
2022/03/21 11:03:06;;;;;;;;;;;18.30;67.70;;;;;;5049961;28;19970;-52
2022/03/21 11:05:36;;;;;;;;;;;17.70;69.60;;;;;;5050594;28;20023;-52
2022/03/21 11:08:03;;;;;;;;;;;17.20;70.50;;;;;;5051097;28;19947;-51
2022/03/21 11:10:31;;;;;;;;;;;16.90;70.80;;;;;;5050689;28;19955;-53
2022/03/21 11:13:01;;;;;;;;;;;16.40;72.70;;;;;;5057807;28;19970;-53
2022/03/21 11:15:28;;;;;;;;;;;16.00;76.40;;;;;;5050933;28;19975;-53
2022/03/21 11:17:55;;;;;;;;;;;15.20;75.50;;;;;;5051394;28;19971;-53
2022/03/21 11:20:22;;;;;;;;;;;15.40;77.00;;;;;;5050738;28;19931;-53
2022/03/21 11:22:52;;;;;;;;;;;15.50;79.40;;;;;;5050528;28;19928;-53
2022/03/21 11:25:19;;;;;;;;;;;16.30;76.20;;;;;;5050531;28;20277;-51
2022/03/21 11:27:51;;;;;;;;;;;16.50;75.30;;;;;;5051017;28;19970;-50
2022/03/21 11:30:22;;;;;;;;;;;16.70;72.90;;;;;;5049764;28;20291;-50
2022/03/21 11:32:54;;;;;;;;;;;16.80;72.90;;;;;;5046413;28;19975;-49
2022/03/21 11:35:25;;;;;;;;;;;16.60;74.10;;;;;;5065678;28;19925;-50
2022/03/21 11:37:53;;;;;;;;;;;15.70;74.00;;;;;;5054244;28;19925;-50
2022/03/21 11:40:27;;;;;;;;;;;16.00;73.90;;;;;;5049851;28;20368;-51
2022/03/21 11:42:56;;;;;;;;;;;16.20;75.10;;;;;;5049837;28;19931;-50
2022/03/21 11:45:24;;;;;;;;;;;15.90;76.00;;;;;;5054153;28;19931;-50
2022/03/21 11:47:51;;;;;;;;;;;15.80;76.10;;;;;;5054815;28;20262;-50
2022/03/21 11:50:27;;;;;;;;;;;15.50;77.00;;;;;;5064739;28;19932;-50
2022/03/21 11:53:09;;;;;;;;;;;15.60;78.30;;;;;;5075586;22;20356;-56
2022/03/21 11:55:37;;;;;;;;;;;15.50;75.40;;;;;;5040337;28;20550;-56
2022/03/21 11:58:18;;;;;;;;;;;15.10;76.20;;;;;;5034352;28;19925;-57
2022/03/21 12:01:00;;;;;;;;;;;15.00;76.20;;;;;;5043245;28;20372;-56
2022/03/21 12:03:27;;;;;;;;;;;15.20;74.60;;;;;;5044375;28;19925;-56
2022/03/21 12:05:53;;;;;;;;;;;15.60;74.30;;;;;;5034332;28;19932;-56
2022/03/21 12:08:44;;;;;;;;;;;15.70;76.20;;;;;;5038681;28;19998;-56
2022/03/21 12:11:33;;;;;;;;;;;15.60;75.10;;;;;;5047201;28;19925;-57
2022/03/21 12:14:14;;;;;;;;;;;15.50;73.30;;;;;;5040088;28;19925;-56
2022/03/21 12:16:41;;;;;;;;;;;15.50;71.30;;;;;;5034965;28;19925;-56
2022/03/21 12:19:08;;;;;;;;;;;15.90;70.60;;;;;;5046754;28;19925;-57
2022/03/21 12:21:37;;;;;;;;;;;15.90;68.90;;;;;;5037382;28;19975;-56
2022/03/21 12:24:15;;;;;;;;;;;15.70;67.30;;;;;;5033764;28;20451;-56
2022/03/21 12:26:49;;;;;;;;;;;15.90;70.30;;;;;;5034866;28;19979;-56
2022/03/21 12:29:36;;;;;;;;;;;15.90;67.80;;;;;;5034957;28;20000;-57
2022/03/21 12:32:21;;;;;;;;;;;15.60;67.10;;;;;;5047498;28;20024;-57
2022/03/21 12:34:49;;;;;;;;;;;15.60;65.90;;;;;;5041765;28;19978;-56
2022/03/21 12:37:24;;;;;;;;;;;15.40;68.40;;;;;;5051889;28;19960;-56
2022/03/21 12:39:53;;;;;;;;;;;14.90;66.70;;;;;;5042980;28;19931;-56
2022/03/21 12:42:22;;;;;;;;;;;14.70;68.30;;;;;;5041759;28;19972;-56
2022/03/21 12:44:49;;;;;;;;;;;15.00;67.80;;;;;;5053089;28;19925;-57
2022/03/21 12:47:17;;;;;;;;;;;15.30;67.50;;;;;;5053028;28;19925;-56
2022/03/21 12:49:47;;;;;;;;;;;15.10;65.30;;;;;;5052103;28;19925;-56
2022/03/21 12:52:25;;;;;;;;;;;15.10;67.30;;;;;;5033692;28;20411;-57
2022/03/21 12:54:53;;;;;;;;;;;15.10;67.40;;;;;;5033110;28;20341;-56
2022/03/21 12:57:21;;;;;;;;;;;15.10;66.40;;;;;;5036524;28;19932;-56
2022/03/21 12:59:48;;;;;;;;;;;15.30;65.20;;;;;;5044970;28;20324;-56
2022/03/21 13:02:23;;;;;;;;;;;15.40;67.30;;;;;;5037916;28;19925;-56
2022/03/21 13:10:33;;;;;;;;;;;15.90;61.00;;;;;;5054834;28;19993;-56
2022/03/21 13:13:04;;;;;;;;;;;15.60;62.60;;;;;;5062448;28;20404;-56
2022/03/21 13:15:31;;;;;;;;;;;15.60;64.50;;;;;;5051628;28;19935;-56
2022/03/21 13:18:01;;;;;;;;;;;15.40;64.40;;;;;;5051779;28;20043;-56
2022/03/21 13:20:30;;;;;;;;;;;15.40;65.80;;;;;;5070779;28;19939;-56
2022/03/21 13:22:57;;;;;;;;;;;15.60;64.70;;;;;;5056952;28;20409;-56
2022/03/21 13:25:25;;;;;;;;;;;15.50;64.10;;;;;;5050903;28;19925;-56
2022/03/21 13:27:52;;;;;;;;;;;15.50;64.10;;;;;;5054771;28;19931;-56
2022/03/21 13:30:21;;;;;;;;;;;15.70;64.00;;;;;;5057838;28;20360;-57
2022/03/21 13:32:47;;;;;;;;;;;15.60;64.70;;;;;;5044887;28;19925;-57
2022/03/21 13:35:14;;;;;;;;;;;15.70;65.40;;;;;;5057825;28;19925;-56
2022/03/21 13:37:41;;;;;;;;;;;15.50;63.80;;;;;;5070810;28;20422;-57
2022/03/21 13:40:09;;;;;;;;;;;15.80;65.00;;;;;;5052758;28;19982;-57
2022/03/21 13:42:36;;;;;;;;;;;15.90;62.70;;;;;;5047632;28;19924;-57
2022/03/21 13:45:05;;;;;;;;;;;15.70;62.90;;;;;;5052471;28;19940;-57
2022/03/21 13:47:45;;;;;;;;;;;15.60;63.60;;;;;;5070244;28;19924;-56
2022/03/21 13:50:12;;;;;;;;;;;15.90;64.70;;;;;;5068974;28;19924;-56
2022/03/21 13:52:41;;;;;;;;;;;16.30;65.50;;;;;;5051111;28;19925;-57
2022/03/21 13:55:08;;;;;;;;;;;16.40;64.70;;;;;;5050702;28;19924;-56
2022/03/21 13:57:42;;;;;;;;;;;16.60;66.10;;;;;;5051243;28;19925;-56
2022/03/21 14:00:10;;;;;;;;;;;16.60;62.40;;;;;;5049039;28;19924;-56
2022/03/21 14:02:42;;;;;;;;;;;16.70;67.70;;;;;;5051147;28;19937;-56
2022/03/21 14:05:17;;;;;;;;;;;16.60;65.30;;;;;;5056325;28;20323;-57
2022/03/21 14:07:44;;;;;;;;;;;16.40;65.80;;;;;;5051702;28;20380;-57
2022/03/21 14:10:13;;;;;;;;;;;16.60;67.60;;;;;;5052102;28;19979;-57
2022/03/21 14:12:41;;;;;;;;;;;16.50;68.70;;;;;;5050614;28;19979;-56
2022/03/21 14:15:08;;;;;;;;;;;16.30;67.70;;;;;;5054745;28;19932;-56
2022/03/21 14:17:35;;;;;;;;;;;16.30;66.50;;;;;;5052385;28;19925;-57
2022/03/21 14:20:03;;;;;;;;;;;16.50;66.50;;;;;;5051225;28;19932;-57
2022/03/21 14:22:30;;;;;;;;;;;16.40;68.70;;;;;;5050658;28;19932;-57
2022/03/21 14:24:57;;;;;;;;;;;16.40;67.70;;;;;;5050457;28;19925;-57
2022/03/21 14:27:23;;;;;;;;;;;16.40;68.40;;;;;;5053358;28;20362;-57
2022/03/21 14:29:50;;;;;;;;;;;16.50;69.50;;;;;;5069620;28;19986;-57
2022/03/21 14:32:17;;;;;;;;;;;16.60;67.90;;;;;;5058653;28;19925;-58
2022/03/21 14:34:44;;;;;;;;;;;16.60;68.00;;;;;;5069151;28;20399;-58
2022/03/21 14:37:12;;;;;;;;;;;16.40;66.00;;;;;;5060963;28;19983;-57
2022/03/21 14:39:39;;;;;;;;;;;16.30;67.30;;;;;;5056759;28;19985;-57
2022/03/21 14:42:06;;;;;;;;;;;16.30;67.70;;;;;;5054384;28;19928;-57
2022/03/21 14:44:33;;;;;;;;;;;16.40;68.90;;;;;;5051034;28;19925;-57
2022/03/21 14:46:59;;;;;;;;;;;16.50;70.30;;;;;;5049440;28;20416;-57
2022/03/21 14:49:26;;;;;;;;;;;16.60;69.20;;;;;;5050955;28;19928;-57
2022/03/21 14:51:53;;;;;;;;;;;16.50;70.10;;;;;;5046533;28;19980;-57
2022/03/21 14:54:21;;;;;;;;;;;16.60;70.20;;;;;;5040133;28;20346;-57